INFORMACIÓN METAR y TAF
METAR FOR LEGE
ADDS - METARS form results

(0307 UTC 16 December 2019)
Data provider http://aviationweather.gov/metar/data/
 
METAR text: LEGE 160300Z VRB02KT CAVOK 04/04 Q1011
Conditions at: LEGE (GERONA/COSTA BRA, ES) observed 0300 UTC 16 December 2019
Temperature: 4.0°C (39°F)
Dewpoint: 4.0°C (39°F) [RH = 100%]
Pressure (altimeter): 29.85 inches Hg (1011.0 mb)
Winds: variable direction winds at 2 MPH (2 knots; 1.0 m/s)
Visibility: 6 or more miles (10+ km)
Ceiling: ceiling and visibility are OK
Clouds: unknown
Weather: no significant weather observed at this time

METAR text: LEGE 160230Z 00000KT CAVOK 05/04 Q1011
Conditions at: LEGE (GERONA/COSTA BRA, ES) observed 0230 UTC 16 December 2019
Temperature: 5.0°C (41°F)
Dewpoint: 4.0°C (39°F) [RH = 93%]
Pressure (altimeter): 29.85 inches Hg (1011.0 mb)
Winds: calm
Visibility: 6 or more miles (10+ km)
Ceiling: ceiling and visibility are OK
Clouds: unknown
Weather: no significant weather observed at this time

Forecast for: LEGE (GERONA/COSTA BRA, ES)
Text: TAF LEGE 152300Z 1600/1624 VRB03KT 9999 FEW015 TX17/1613Z TN08/1606Z
Forecast period: 0000 UTC 16 December 2019 to 0000 UTC 17 December 2019
Forecast type: FROM: standard forecast or significant change
Winds: variable direction winds at 3 MPH (3 knots; 1.5 m/s)
Visibility: 6 or more miles 10+ km)
Ceiling: at least 12,000 feet AGL
Clouds: few clouds at 1500 feet AGL
Weather: no significant weather forecast for this period
Text: PROB40
Forecast period: 0000 to 0900 UTC 16 December 2019
Forecast type: TEMPORARY: The following changes expected for less than half the time period
Visibility: 1.86 miles (2.99 km)
Ceiling: 1000 feet AGL
Clouds: overcast cloud deck at 1000 feet AGL
Weather: BR  (mist)
Text: TEMPO 1600/1609 3000 BR OVC010
Forecast period: 2200 UTC 16 December 2019 to 0000 UTC 17 December 2019
Forecast type: TEMPORARY: The following changes expected for less than half the time period
Visibility: 1.86 miles (2.99 km)
Ceiling: 600 feet AGL
Clouds: overcast cloud deck at 600 feet AGL
Weather: BR  (mist)

MAPA DE AEROPUERTO

INFORMACIÓN DE PISTA
Pista 02 Longitud 7874 ft Ancho 148 ft
Elevación 403 ft Umbral desplazado 0 ft Rumbo de pista 16
Pista 20 Longitud 7874 ft Ancho 148 ft
Elevación 468 ft Umbral desplazado 0 ft Rumbo de pista 196

FRECUANCIAS DEL AEROPUERTO
Tipo APP Nombre APP Frecuencia 120.9 MHZ
Tipo GND Nombre GND Frecuencia 121.7 MHZ
Tipo TWR Nombre TWR Frecuencia 118.5 MHZ

RADIO AYUDAS DEL AEROPUERTO
Tipo VOR-DME Nombre Gerona Frecuencia 114100 KHZ
Tipo NDB Nombre Gerona Frecuencia 412 KHZ